sensor_id;sensor_type;location;lat;lon;timestamp;pressure;altitude;pressure_sealevel;temperature;humidity
64053;BME280;50299;49.524;8.536;2023-04-07T00:00:29;100543.22;;;5.08;93.48
64053;BME280;50299;49.524;8.536;2023-04-07T00:02:56;100548.88;;;4.88;92.07
64053;BME280;50299;49.524;8.536;2023-04-07T00:05:22;100537.25;;;5.01;98.20
64053;BME280;50299;49.524;8.536;2023-04-07T00:07:49;100542.97;;;5.05;96.57
64053;BME280;50299;49.524;8.536;2023-04-07T00:10:23;100531.75;;;5.01;96.75
64053;BME280;50299;49.524;8.536;2023-04-07T00:12:50;100535.13;;;4.93;98.14
64053;BME280;50299;49.524;8.536;2023-04-07T00:15:17;100543.66;;;4.91;97.94
64053;BME280;50299;49.524;8.536;2023-04-07T00:17:43;100534.22;;;5.03;100.00
64053;BME280;50299;49.524;8.536;2023-04-07T00:20:10;100528.94;;;4.82;98.43
64053;BME280;50299;49.524;8.536;2023-04-07T00:22:37;100530.00;;;4.86;98.83
64053;BME280;50299;49.524;8.536;2023-04-07T00:25:03;100515.63;;;5.00;98.96
64053;BME280;50299;49.524;8.536;2023-04-07T00:27:30;100515.75;;;4.89;98.04
64053;BME280;50299;49.524;8.536;2023-04-07T00:29:57;100514.78;;;4.70;97.37
64053;BME280;50299;49.524;8.536;2023-04-07T00:32:23;100508.59;;;4.59;97.92
64053;BME280;50299;49.524;8.536;2023-04-07T00:34:49;100497.88;;;4.63;97.89
64053;BME280;50299;49.524;8.536;2023-04-07T00:37:16;100505.38;;;4.81;100.00
64053;BME280;50299;49.524;8.536;2023-04-07T00:39:42;100505.94;;;4.83;99.96
64053;BME280;50299;49.524;8.536;2023-04-07T00:42:09;100493.47;;;4.67;99.51
64053;BME280;50299;49.524;8.536;2023-04-07T00:44:36;100491.06;;;4.60;98.94
64053;BME280;50299;49.524;8.536;2023-04-07T00:47:02;100488.66;;;4.54;99.44
64053;BME280;50299;49.524;8.536;2023-04-07T00:49:29;100483.25;;;4.49;99.51
64053;BME280;50299;49.524;8.536;2023-04-07T00:51:56;100476.59;;;4.55;100.00
64053;BME280;50299;49.524;8.536;2023-04-07T00:54:23;100478.81;;;4.53;99.67
64053;BME280;50299;49.524;8.536;2023-04-07T00:56:50;100471.50;;;4.43;99.62
64053;BME280;50299;49.524;8.536;2023-04-07T00:59:17;100474.66;;;4.55;99.11
64053;BME280;50299;49.524;8.536;2023-04-07T01:02:01;100473.59;;;4.56;100.00
64053;BME280;50299;49.524;8.536;2023-04-07T01:04:42;100468.50;;;4.39;99.48
64053;BME280;50299;49.524;8.536;2023-04-07T01:07:15;100469.44;;;4.59;100.00
64053;BME280;50299;49.524;8.536;2023-04-07T01:09:53;100465.03;;;4.63;100.00
64053;BME280;50299;49.524;8.536;2023-04-07T01:14:58;100467.63;;;4.78;100.00
64053;BME280;50299;49.524;8.536;2023-04-07T01:17:26;100451.75;;;4.75;100.00
64053;BME280;50299;49.524;8.536;2023-04-07T01:19:58;100457.09;;;4.61;98.65
64053;BME280;50299;49.524;8.536;2023-04-07T01:22:42;100453.88;;;4.54;100.00
64053;BME280;50299;49.524;8.536;2023-04-07T01:28:09;100442.13;;;5.07;100.00
64053;BME280;50299;49.524;8.536;2023-04-07T01:30:40;100443.44;;;5.09;100.00
64053;BME280;50299;49.524;8.536;2023-04-07T01:33:09;100437.56;;;4.97;100.00
64053;BME280;50299;49.524;8.536;2023-04-07T01:35:37;100434.63;;;4.94;99.45
64053;BME280;50299;49.524;8.536;2023-04-07T01:38:05;100434.44;;;4.80;98.83
64053;BME280;50299;49.524;8.536;2023-04-07T01:40:32;100435.25;;;4.80;100.00
64053;BME280;50299;49.524;8.536;2023-04-07T01:43:00;100439.06;;;4.84;100.00
64053;BME280;50299;49.524;8.536;2023-04-07T01:45:28;100431.84;;;4.70;99.39
64053;BME280;50299;49.524;8.536;2023-04-07T01:47:56;100431.03;;;4.69;99.27
64053;BME280;50299;49.524;8.536;2023-04-07T01:50:23;100434.75;;;4.78;100.00
64053;BME280;50299;49.524;8.536;2023-04-07T01:52:51;100429.66;;;4.66;98.65
64053;BME280;50299;49.524;8.536;2023-04-07T01:55:18;100431.41;;;4.86;100.00
64053;BME280;50299;49.524;8.536;2023-04-07T01:57:44;100426.41;;;4.94;100.00
64053;BME280;50299;49.524;8.536;2023-04-07T02:00:33;100435.28;;;5.04;100.00
64053;BME280;50299;49.524;8.536;2023-04-07T02:03:15;100435.22;;;5.09;99.48
64053;BME280;50299;49.524;8.536;2023-04-07T02:05:48;100431.91;;;5.12;98.62
64053;BME280;50299;49.524;8.536;2023-04-07T02:08:17;100427.25;;;5.13;98.30
64053;BME280;50299;49.524;8.536;2023-04-07T02:10:46;100430.03;;;5.32;99.72
64053;BME280;50299;49.524;8.536;2023-04-07T02:13:17;100422.09;;;5.49;98.49
64053;BME280;50299;49.524;8.536;2023-04-07T02:15:44;100425.81;;;5.58;98.89
64053;BME280;50299;49.524;8.536;2023-04-07T02:18:13;100422.94;;;5.50;93.52
64053;BME280;50299;49.524;8.536;2023-04-07T02:20:42;100425.38;;;5.51;93.07
64053;BME280;50299;49.524;8.536;2023-04-07T02:23:10;100426.84;;;5.62;89.35
64053;BME280;50299;49.524;8.536;2023-04-07T02:25:36;100417.66;;;5.53;83.27
64053;BME280;50299;49.524;8.536;2023-04-07T02:28:05;100421.28;;;5.30;81.94
64053;BME280;50299;49.524;8.536;2023-04-07T02:30:32;100414.94;;;5.34;84.50
64053;BME280;50299;49.524;8.536;2023-04-07T02:32:58;100415.63;;;5.21;82.32
64053;BME280;50299;49.524;8.536;2023-04-07T02:35:25;100413.25;;;5.14;80.55
64053;BME280;50299;49.524;8.536;2023-04-07T02:37:52;100412.00;;;5.07;82.27
64053;BME280;50299;49.524;8.536;2023-04-07T02:40:18;100409.81;;;5.04;82.95
64053;BME280;50299;49.524;8.536;2023-04-07T02:42:45;100409.31;;;5.02;80.90
64053;BME280;50299;49.524;8.536;2023-04-07T02:45:11;100404.56;;;5.07;85.13
64053;BME280;50299;49.524;8.536;2023-04-07T02:47:40;100413.31;;;5.09;84.10
64053;BME280;50299;49.524;8.536;2023-04-07T02:50:07;100406.75;;;5.29;87.87
64053;BME280;50299;49.524;8.536;2023-04-07T02:52:33;100410.50;;;5.38;84.75
64053;BME280;50299;49.524;8.536;2023-04-07T02:55:00;100404.16;;;5.38;82.59
64053;BME280;50299;49.524;8.536;2023-04-07T02:57:26;100401.00;;;5.31;75.25
64053;BME280;50299;49.524;8.536;2023-04-07T02:59:52;100392.06;;;5.20;81.34
64053;BME280;50299;49.524;8.536;2023-04-07T03:02:21;100400.00;;;5.22;78.66
64053;BME280;50299;49.524;8.536;2023-04-07T03:04:47;100401.41;;;5.19;81.22
64053;BME280;50299;49.524;8.536;2023-04-07T03:07:13;100403.19;;;5.10;80.38
64053;BME280;50299;49.524;8.536;2023-04-07T03:09:40;100406.53;;;5.26;79.70
64053;BME280;50299;49.524;8.536;2023-04-07T03:12:06;100399.34;;;5.30;81.93
64053;BME280;50299;49.524;8.536;2023-04-07T03:14:33;100395.44;;;5.36;85.30
64053;BME280;50299;49.524;8.536;2023-04-07T03:16:59;100395.41;;;5.55;85.41
64053;BME280;50299;49.524;8.536;2023-04-07T03:19:26;100395.22;;;5.51;79.29
64053;BME280;50299;49.524;8.536;2023-04-07T03:21:52;100393.34;;;5.47;83.68
64053;BME280;50299;49.524;8.536;2023-04-07T03:24:19;100383.19;;;5.66;89.85
64053;BME280;50299;49.524;8.536;2023-04-07T03:26:45;100392.91;;;5.77;82.70
64053;BME280;50299;49.524;8.536;2023-04-07T03:29:12;100386.97;;;5.89;83.22
64053;BME280;50299;49.524;8.536;2023-04-07T03:31:38;100381.06;;;5.96;83.72
64053;BME280;50299;49.524;8.536;2023-04-07T03:34:05;100378.34;;;5.96;81.95
64053;BME280;50299;49.524;8.536;2023-04-07T03:36:31;100377.25;;;5.97;81.89
64053;BME280;50299;49.524;8.536;2023-04-07T03:38:58;100387.78;;;5.89;81.41
64053;BME280;50299;49.524;8.536;2023-04-07T03:41:25;100374.19;;;5.98;83.36
64053;BME280;50299;49.524;8.536;2023-04-07T03:43:54;100378.28;;;6.01;79.05
64053;BME280;50299;49.524;8.536;2023-04-07T03:46:20;100370.78;;;6.20;86.63
64053;BME280;50299;49.524;8.536;2023-04-07T03:48:47;100376.38;;;6.15;76.50
64053;BME280;50299;49.524;8.536;2023-04-07T03:51:13;100376.03;;;6.03;77.58
64053;BME280;50299;49.524;8.536;2023-04-07T03:53:40;100373.88;;;6.00;80.18
64053;BME280;50299;49.524;8.536;2023-04-07T03:56:06;100380.94;;;6.06;82.02
64053;BME280;50299;49.524;8.536;2023-04-07T03:58:33;100380.94;;;6.20;80.72
64053;BME280;50299;49.524;8.536;2023-04-07T04:00:59;100381.09;;;6.28;82.26
64053;BME280;50299;49.524;8.536;2023-04-07T04:03:26;100388.34;;;6.38;84.30
64053;BME280;50299;49.524;8.536;2023-04-07T04:05:52;100377.19;;;6.48;81.30
64053;BME280;50299;49.524;8.536;2023-04-07T04:08:19;100386.75;;;6.51;81.75
64053;BME280;50299;49.524;8.536;2023-04-07T04:10:45;100387.94;;;6.45;78.59
64053;BME280;50299;49.524;8.536;2023-04-07T04:13:12;100391.38;;;6.36;79.80
64053;BME280;50299;49.524;8.536;2023-04-07T04:15:38;100390.28;;;6.37;80.91
64053;BME280;50299;49.524;8.536;2023-04-07T04:18:05;100391.91;;;6.38;80.83
64053;BME280;50299;49.524;8.536;2023-04-07T04:20:31;100384.50;;;6.53;84.76
64053;BME280;50299;49.524;8.536;2023-04-07T04:22:57;100390.63;;;6.63;75.97
64053;BME280;50299;49.524;8.536;2023-04-07T04:25:24;100392.44;;;6.54;82.82
64053;BME280;50299;49.524;8.536;2023-04-07T04:27:50;100394.28;;;6.59;83.16
64053;BME280;50299;49.524;8.536;2023-04-07T04:30:17;100392.78;;;6.67;82.80
64053;BME280;50299;49.524;8.536;2023-04-07T04:32:43;100398.88;;;6.77;85.46
64053;BME280;50299;49.524;8.536;2023-04-07T04:35:10;100395.91;;;6.74;79.82
64053;BME280;50299;49.524;8.536;2023-04-07T04:37:36;100394.28;;;6.73;85.96
64053;BME280;50299;49.524;8.536;2023-04-07T04:40:03;100396.72;;;6.74;81.70
64053;BME280;50299;49.524;8.536;2023-04-07T04:42:35;100393.38;;;6.91;86.40
64053;BME280;50299;49.524;8.536;2023-04-07T04:45:01;100394.41;;;6.95;77.97
64053;BME280;50299;49.524;8.536;2023-04-07T04:47:28;100407.94;;;6.92;69.58
64053;BME280;50299;49.524;8.536;2023-04-07T04:49:54;100394.47;;;6.49;75.61
64053;BME280;50299;49.524;8.536;2023-04-07T04:52:21;100388.97;;;6.35;77.74
64053;BME280;50299;49.524;8.536;2023-04-07T04:54:47;100392.72;;;6.39;80.76
64053;BME280;50299;49.524;8.536;2023-04-07T04:57:14;100388.97;;;6.35;80.80
64053;BME280;50299;49.524;8.536;2023-04-07T04:59:41;100383.16;;;6.36;78.31
64053;BME280;50299;49.524;8.536;2023-04-07T05:02:07;100385.91;;;6.36;82.49
64053;BME280;50299;49.524;8.536;2023-04-07T05:04:34;100384.66;;;6.29;80.56
64053;BME280;50299;49.524;8.536;2023-04-07T05:07:00;100393.00;;;6.24;77.14
64053;BME280;50299;49.524;8.536;2023-04-07T05:09:27;100387.63;;;6.32;79.21
64053;BME280;50299;49.524;8.536;2023-04-07T05:11:55;100392.81;;;6.34;76.28
64053;BME280;50299;49.524;8.536;2023-04-07T05:14:23;100388.56;;;6.42;79.41
64053;BME280;50299;49.524;8.536;2023-04-07T05:16:49;100397.22;;;6.49;77.85
64053;BME280;50299;49.524;8.536;2023-04-07T05:19:15;100396.41;;;6.48;71.44
64053;BME280;50299;49.524;8.536;2023-04-07T05:21:42;100394.06;;;6.42;79.89
64053;BME280;50299;49.524;8.536;2023-04-07T05:24:11;100388.47;;;6.14;73.81
64053;BME280;50299;49.524;8.536;2023-04-07T05:26:37;100391.69;;;6.02;74.36
64053;BME280;50299;49.524;8.536;2023-04-07T05:29:03;100384.69;;;6.10;74.36
64053;BME280;50299;49.524;8.536;2023-04-07T05:31:30;100382.09;;;6.00;69.44
64053;BME280;50299;49.524;8.536;2023-04-07T05:33:56;100382.50;;;5.93;74.40
64053;BME280;50299;49.524;8.536;2023-04-07T05:36:23;100390.88;;;5.83;75.98
64053;BME280;50299;49.524;8.536;2023-04-07T05:38:49;100381.25;;;5.85;79.30
64053;BME280;50299;49.524;8.536;2023-04-07T05:41:16;100380.34;;;6.09;83.39
64053;BME280;50299;49.524;8.536;2023-04-07T05:43:42;100380.06;;;6.24;73.89
64053;BME280;50299;49.524;8.536;2023-04-07T05:46:08;100379.38;;;6.32;76.02
64053;BME280;50299;49.524;8.536;2023-04-07T05:48:35;100382.66;;;6.34;75.56
64053;BME280;50299;49.524;8.536;2023-04-07T05:51:01;100382.97;;;6.47;77.12
64053;BME280;50299;49.524;8.536;2023-04-07T05:53:27;100388.19;;;6.62;81.19
64053;BME280;50299;49.524;8.536;2023-04-07T05:55:54;100382.50;;;6.58;72.84
64053;BME280;50299;49.524;8.536;2023-04-07T05:58:20;100388.47;;;6.74;78.46
64053;BME280;50299;49.524;8.536;2023-04-07T06:00:47;100386.75;;;6.78;70.91
64053;BME280;50299;49.524;8.536;2023-04-07T06:03:13;100387.75;;;6.82;76.10
64053;BME280;50299;49.524;8.536;2023-04-07T06:05:39;100387.56;;;6.93;77.90
64053;BME280;50299;49.524;8.536;2023-04-07T06:08:09;100396.22;;;7.13;82.78
64053;BME280;50299;49.524;8.536;2023-04-07T06:10:35;100395.09;;;7.28;78.53
64053;BME280;50299;49.524;8.536;2023-04-07T06:13:02;100390.16;;;7.39;81.03
64053;BME280;50299;49.524;8.536;2023-04-07T06:15:29;100403.63;;;7.40;69.42
64053;BME280;50299;49.524;8.536;2023-04-07T06:17:55;100405.25;;;7.42;67.61
64053;BME280;50299;49.524;8.536;2023-04-07T06:20:22;100400.59;;;7.28;71.81
64053;BME280;50299;49.524;8.536;2023-04-07T06:22:49;100404.78;;;7.12;66.52
64053;BME280;50299;49.524;8.536;2023-04-07T06:25:16;100397.63;;;7.11;68.80
64053;BME280;50299;49.524;8.536;2023-04-07T06:27:42;100405.28;;;7.00;69.07
64053;BME280;50299;49.524;8.536;2023-04-07T06:30:09;100395.00;;;7.06;66.13
64053;BME280;50299;49.524;8.536;2023-04-07T06:32:36;100402.25;;;6.88;66.47
64053;BME280;50299;49.524;8.536;2023-04-07T06:35:03;100406.59;;;6.61;67.06
64053;BME280;50299;49.524;8.536;2023-04-07T06:37:29;100395.97;;;6.41;69.00
64053;BME280;50299;49.524;8.536;2023-04-07T06:39:56;100397.94;;;6.54;70.53
64053;BME280;50299;49.524;8.536;2023-04-07T06:42:22;100397.09;;;6.40;70.81
64053;BME280;50299;49.524;8.536;2023-04-07T06:44:48;100395.91;;;6.46;69.94
64053;BME280;50299;49.524;8.536;2023-04-07T06:47:15;100394.56;;;6.44;72.46
64053;BME280;50299;49.524;8.536;2023-04-07T06:49:41;100393.69;;;6.62;70.58
64053;BME280;50299;49.524;8.536;2023-04-07T06:52:08;100391.16;;;6.79;72.91
64053;BME280;50299;49.524;8.536;2023-04-07T06:54:34;100394.91;;;6.83;74.80
64053;BME280;50299;49.524;8.536;2023-04-07T06:57:01;100394.41;;;6.95;72.02
64053;BME280;50299;49.524;8.536;2023-04-07T06:59:27;100408.63;;;7.11;66.31
64053;BME280;50299;49.524;8.536;2023-04-07T07:01:54;100398.75;;;6.82;68.41
64053;BME280;50299;49.524;8.536;2023-04-07T07:04:20;100394.50;;;6.90;70.63
64053;BME280;50299;49.524;8.536;2023-04-07T07:06:47;100400.09;;;6.99;70.23
64053;BME280;50299;49.524;8.536;2023-04-07T07:09:13;100403.34;;;7.14;67.37
64053;BME280;50299;49.524;8.536;2023-04-07T07:11:41;100405.88;;;7.11;69.94
64053;BME280;50299;49.524;8.536;2023-04-07T07:14:07;100405.94;;;7.47;78.36
64053;BME280;50299;49.524;8.536;2023-04-07T07:16:33;100405.53;;;7.90;79.37
64053;BME280;50299;49.524;8.536;2023-04-07T07:19:00;100405.19;;;8.36;74.34
64053;BME280;50299;49.524;8.536;2023-04-07T07:21:26;100402.34;;;8.50;68.21
64053;BME280;50299;49.524;8.536;2023-04-07T07:23:53;100409.72;;;8.63;71.87
64053;BME280;50299;49.524;8.536;2023-04-07T07:26:19;100409.03;;;8.89;73.86
64053;BME280;50299;49.524;8.536;2023-04-07T07:28:46;100405.56;;;9.23;71.81
64053;BME280;50299;49.524;8.536;2023-04-07T07:31:12;100400.59;;;9.60;73.29
64053;BME280;50299;49.524;8.536;2023-04-07T07:33:41;100395.41;;;10.02;64.85
64053;BME280;50299;49.524;8.536;2023-04-07T07:36:09;100392.84;;;9.88;66.38
64053;BME280;50299;49.524;8.536;2023-04-07T07:38:35;100391.19;;;10.04;70.50
64053;BME280;50299;49.524;8.536;2023-04-07T07:41:03;100386.41;;;10.40;71.40
64053;BME280;50299;49.524;8.536;2023-04-07T07:43:29;100384.56;;;10.61;69.17
64053;BME280;50299;49.524;8.536;2023-04-07T07:45:55;100390.41;;;10.59;69.54
64053;BME280;50299;49.524;8.536;2023-04-07T07:48:22;100393.47;;;10.67;68.04
64053;BME280;50299;49.524;8.536;2023-04-07T07:50:49;100402.72;;;10.79;55.99
64053;BME280;50299;49.524;8.536;2023-04-07T07:53:17;100410.72;;;10.64;60.23
64053;BME280;50299;49.524;8.536;2023-04-07T07:55:45;100401.75;;;10.67;62.72
64053;BME280;50299;49.524;8.536;2023-04-07T07:58:11;100404.72;;;10.61;65.96
64053;BME280;50299;49.524;8.536;2023-04-07T08:00:38;100409.56;;;10.65;54.21
64053;BME280;50299;49.524;8.536;2023-04-07T08:03:04;100414.69;;;10.45;54.58
64053;BME280;50299;49.524;8.536;2023-04-07T08:05:30;100409.03;;;10.33;64.94
64053;BME280;50299;49.524;8.536;2023-04-07T08:07:57;100412.38;;;10.47;69.68
64053;BME280;50299;49.524;8.536;2023-04-07T08:10:23;100408.22;;;10.88;62.89
64053;BME280;50299;49.524;8.536;2023-04-07T08:12:50;100408.31;;;11.00;68.45
64053;BME280;50299;49.524;8.536;2023-04-07T08:15:16;100420.94;;;11.10;58.86
64053;BME280;50299;49.524;8.536;2023-04-07T08:17:43;100429.03;;;10.94;52.94
64053;BME280;50299;49.524;8.536;2023-04-07T08:20:09;100427.59;;;10.71;63.45
64053;BME280;50299;49.524;8.536;2023-04-07T08:22:36;100425.00;;;10.83;65.98
64053;BME280;50299;49.524;8.536;2023-04-07T08:25:03;100429.28;;;11.31;59.14
64053;BME280;50299;49.524;8.536;2023-04-07T08:27:30;100431.78;;;10.94;51.44
64053;BME280;50299;49.524;8.536;2023-04-07T08:30:01;100432.75;;;10.98;54.14
64053;BME280;50299;49.524;8.536;2023-04-07T08:32:39;100439.03;;;11.37;60.60
64053;BME280;50299;49.524;8.536;2023-04-07T08:35:06;100432.97;;;11.44;52.89
64053;BME280;50299;49.524;8.536;2023-04-07T08:37:33;100439.53;;;11.01;49.96
64053;BME280;50299;49.524;8.536;2023-04-07T08:40:00;100434.63;;;10.59;63.49
64053;BME280;50299;49.524;8.536;2023-04-07T08:42:29;100427.94;;;10.78;59.32
64053;BME280;50299;49.524;8.536;2023-04-07T08:44:57;100442.31;;;11.01;53.36
64053;BME280;50299;49.524;8.536;2023-04-07T08:47:26;100433.56;;;10.99;57.98
64053;BME280;50299;49.524;8.536;2023-04-07T08:49:56;100432.69;;;11.07;56.95
64053;BME280;50299;49.524;8.536;2023-04-07T08:52:27;100441.50;;;11.30;58.38
64053;BME280;50299;49.524;8.536;2023-04-07T08:54:58;100436.94;;;10.40;56.94
64053;BME280;50299;49.524;8.536;2023-04-07T08:57:29;100444.41;;;10.48;53.27
64053;BME280;50299;49.524;8.536;2023-04-07T09:00:00;100436.94;;;10.40;54.11
64053;BME280;50299;49.524;8.536;2023-04-07T09:02:36;100446.25;;;10.09;52.15
64053;BME280;50299;49.524;8.536;2023-04-07T09:05:04;100442.31;;;9.58;52.96
64053;BME280;50299;49.524;8.536;2023-04-07T09:07:32;100441.44;;;9.23;54.15
64053;BME280;50299;49.524;8.536;2023-04-07T09:09:59;100450.69;;;8.87;56.94
64053;BME280;50299;49.524;8.536;2023-04-07T09:12:28;100454.19;;;8.71;57.03
64053;BME280;50299;49.524;8.536;2023-04-07T09:14:54;100456.22;;;8.87;62.31
64053;BME280;50299;49.524;8.536;2023-04-07T09:17:21;100452.97;;;9.25;61.84
64053;BME280;50299;49.524;8.536;2023-04-07T09:19:48;100451.88;;;9.44;55.76
64053;BME280;50299;49.524;8.536;2023-04-07T09:22:14;100450.34;;;9.29;57.33
64053;BME280;50299;49.524;8.536;2023-04-07T09:24:41;100463.47;;;9.15;58.57
64053;BME280;50299;49.524;8.536;2023-04-07T09:27:12;100457.25;;;9.66;60.99
64053;BME280;50299;49.524;8.536;2023-04-07T09:29:46;100459.91;;;10.15;69.68
64053;BME280;50299;49.524;8.536;2023-04-07T09:32:36;100456.97;;;10.11;57.56
64053;BME280;50299;49.524;8.536;2023-04-07T09:35:07;100457.13;;;10.23;59.89
64053;BME280;50299;49.524;8.536;2023-04-07T09:37:33;100465.53;;;10.44;65.24
64053;BME280;50299;49.524;8.536;2023-04-07T09:40:00;100460.09;;;10.91;53.81
64053;BME280;50299;49.524;8.536;2023-04-07T09:42:27;100460.69;;;10.50;60.18
64053;BME280;50299;49.524;8.536;2023-04-07T09:44:59;100455.66;;;10.26;54.35
64053;BME280;50299;49.524;8.536;2023-04-07T09:47:26;100455.69;;;10.00;57.73
64053;BME280;50299;49.524;8.536;2023-04-07T09:49:54;100457.31;;;10.09;61.68
64053;BME280;50299;49.524;8.536;2023-04-07T09:52:24;100454.53;;;10.27;54.88
64053;BME280;50299;49.524;8.536;2023-04-07T09:54:51;100455.63;;;10.52;61.78
64053;BME280;50299;49.524;8.536;2023-04-07T09:57:19;100454.06;;;10.89;63.52
64053;BME280;50299;49.524;8.536;2023-04-07T09:59:47;100461.53;;;11.35;58.34
64053;BME280;50299;49.524;8.536;2023-04-07T10:02:14;100457.31;;;11.29;50.73
64053;BME280;50299;49.524;8.536;2023-04-07T10:04:40;100458.81;;;10.80;53.15
64053;BME280;50299;49.524;8.536;2023-04-07T10:07:07;100454.81;;;10.51;57.61
64053;BME280;50299;49.524;8.536;2023-04-07T10:09:34;100459.03;;;10.57;56.13
64053;BME280;50299;49.524;8.536;2023-04-07T10:12:01;100461.97;;;10.44;54.38
64053;BME280;50299;49.524;8.536;2023-04-07T10:14:31;100462.84;;;9.75;57.12
64053;BME280;50299;49.524;8.536;2023-04-07T10:16:59;100461.66;;;9.67;57.55
64053;BME280;50299;49.524;8.536;2023-04-07T10:19:31;100462.50;;;9.19;63.31
64053;BME280;50299;49.524;8.536;2023-04-07T10:22:00;100465.44;;;9.23;66.31
64053;BME280;50299;49.524;8.536;2023-04-07T10:27:00;100472.00;;;9.04;67.87
64053;BME280;50299;49.524;8.536;2023-04-07T10:29:30;100472.56;;;8.84;69.50
64053;BME280;50299;49.524;8.536;2023-04-07T10:32:00;100470.06;;;8.65;70.81
64053;BME280;50299;49.524;8.536;2023-04-07T10:37:18;100476.91;;;8.54;79.42
64053;BME280;50299;49.524;8.536;2023-04-07T10:39:50;100480.94;;;8.70;75.99
64053;BME280;50299;49.524;8.536;2023-04-07T10:45:07;100474.19;;;9.25;78.03
64053;BME280;50299;49.524;8.536;2023-04-07T10:50:24;100479.69;;;9.16;76.56
64053;BME280;50299;49.524;8.536;2023-04-07T10:55:43;100481.34;;;9.83;74.75
64053;BME280;50299;49.524;8.536;2023-04-07T11:03:55;100479.72;;;10.17;74.71
64053;BME280;50299;49.524;8.536;2023-04-07T11:06:22;100477.56;;;10.48;65.30
64053;BME280;50299;49.524;8.536;2023-04-07T11:08:49;100478.75;;;10.04;62.85
64053;BME280;50299;49.524;8.536;2023-04-07T11:11:33;100475.75;;;9.57;68.43
64053;BME280;50299;49.524;8.536;2023-04-07T11:14:00;100483.34;;;9.34;66.86
64053;BME280;50299;49.524;8.536;2023-04-07T11:16:38;100474.97;;;9.17;68.24
64053;BME280;50299;49.524;8.536;2023-04-07T11:19:05;100469.22;;;9.44;65.55
64053;BME280;50299;49.524;8.536;2023-04-07T11:21:31;100468.03;;;9.94;60.74
64053;BME280;50299;49.524;8.536;2023-04-07T11:23:58;100473.38;;;9.73;62.32
64053;BME280;50299;49.524;8.536;2023-04-07T11:26:24;100469.66;;;10.12;68.42
64053;BME280;50299;49.524;8.536;2023-04-07T11:28:53;100481.19;;;10.05;63.65
64053;BME280;50299;49.524;8.536;2023-04-07T11:31:27;100474.34;;;10.46;66.82
64053;BME280;50299;49.524;8.536;2023-04-07T11:33:56;100477.38;;;10.79;64.72
64053;BME280;50299;49.524;8.536;2023-04-07T11:36:29;100487.94;;;11.54;53.71
64053;BME280;50299;49.524;8.536;2023-04-07T11:38:56;100485.47;;;11.31;61.22
64053;BME280;50299;49.524;8.536;2023-04-07T11:41:24;100488.03;;;11.07;61.79
64053;BME280;50299;49.524;8.536;2023-04-07T11:44:08;100491.22;;;11.18;65.46
64053;BME280;50299;49.524;8.536;2023-04-07T11:46:36;100485.22;;;11.45;60.23
64053;BME280;50299;49.524;8.536;2023-04-07T11:49:11;100487.09;;;11.32;55.55
64053;BME280;50299;49.524;8.536;2023-04-07T11:51:39;100492.06;;;11.48;60.35
64053;BME280;50299;49.524;8.536;2023-04-07T11:54:06;100499.03;;;11.54;57.69
64053;BME280;50299;49.524;8.536;2023-04-07T11:56:46;100495.94;;;11.17;55.78
64053;BME280;50299;49.524;8.536;2023-04-07T11:59:20;100495.28;;;11.20;53.19
64053;BME280;50299;49.524;8.536;2023-04-07T12:01:49;100492.88;;;11.10;55.21
64053;BME280;50299;49.524;8.536;2023-04-07T12:04:17;100503.16;;;11.01;58.29
64053;BME280;50299;49.524;8.536;2023-04-07T12:06:46;100504.22;;;10.79;55.68
64053;BME280;50299;49.524;8.536;2023-04-07T12:09:30;100505.09;;;11.09;53.53
64053;BME280;50299;49.524;8.536;2023-04-07T12:11:57;100499.03;;;10.43;56.13
64053;BME280;50299;49.524;8.536;2023-04-07T12:14:25;100503.59;;;10.39;57.27
64053;BME280;50299;49.524;8.536;2023-04-07T12:16:53;100509.94;;;10.30;56.28
64053;BME280;50299;49.524;8.536;2023-04-07T12:19:22;100511.22;;;10.50;60.00
64053;BME280;50299;49.524;8.536;2023-04-07T12:21:49;100509.63;;;10.06;58.31
64053;BME280;50299;49.524;8.536;2023-04-07T12:24:15;100511.25;;;10.24;58.71
64053;BME280;50299;49.524;8.536;2023-04-07T12:26:42;100512.88;;;10.43;58.96
64053;BME280;50299;49.524;8.536;2023-04-07T12:29:08;100515.66;;;10.17;58.05
64053;BME280;50299;49.524;8.536;2023-04-07T12:31:34;100518.25;;;10.13;60.61
64053;BME280;50299;49.524;8.536;2023-04-07T12:34:02;100514.66;;;10.39;60.16
64053;BME280;50299;49.524;8.536;2023-04-07T12:36:28;100515.78;;;10.11;58.64
64053;BME280;50299;49.524;8.536;2023-04-07T12:38:55;100516.75;;;10.07;61.43
64053;BME280;50299;49.524;8.536;2023-04-07T12:41:22;100518.53;;;10.03;60.93
64053;BME280;50299;49.524;8.536;2023-04-07T12:43:49;100524.56;;;10.40;56.77
64053;BME280;50299;49.524;8.536;2023-04-07T12:46:17;100520.19;;;10.39;55.52
64053;BME280;50299;49.524;8.536;2023-04-07T12:48:43;100519.28;;;9.69;59.79
64053;BME280;50299;49.524;8.536;2023-04-07T12:51:10;100533.16;;;9.86;67.60
64053;BME280;50299;49.524;8.536;2023-04-07T12:53:36;100531.09;;;9.52;93.01
64053;BME280;50299;49.524;8.536;2023-04-07T12:56:03;100540.34;;;9.56;77.52
64053;BME280;50299;49.524;8.536;2023-04-07T12:58:30;100531.09;;;9.12;72.90
64053;BME280;50299;49.524;8.536;2023-04-07T13:00:56;100529.06;;;8.95;78.00
64053;BME280;50299;49.524;8.536;2023-04-07T13:03:23;100532.72;;;9.61;74.09
64053;BME280;50299;49.524;8.536;2023-04-07T13:05:50;100538.28;;;9.22;69.15
64053;BME280;50299;49.524;8.536;2023-04-07T13:08:19;100537.84;;;8.75;74.41
64053;BME280;50299;49.524;8.536;2023-04-07T13:10:46;100533.91;;;8.90;69.37
64053;BME280;50299;49.524;8.536;2023-04-07T13:13:12;100539.53;;;8.39;72.78
64053;BME280;50299;49.524;8.536;2023-04-07T13:15:39;100529.88;;;8.65;77.98
64053;BME280;50299;49.524;8.536;2023-04-07T13:18:05;100534.22;;;9.19;76.25
64053;BME280;50299;49.524;8.536;2023-04-07T13:20:32;100530.56;;;9.90;66.71
64053;BME280;50299;49.524;8.536;2023-04-07T13:22:59;100537.84;;;9.37;77.32
64053;BME280;50299;49.524;8.536;2023-04-07T13:25:33;100535.53;;;8.91;76.90